PASV/SVW METAR and TAF weather

Enter ICAO airport designator
Station Type Date Time Source
PASV METAR 2021/05/14 02:55 UTC NOAA

PASV 140255Z AUTO 14005KT 10SM CLR 12/M04 A2995 RMK AO2 SLP149 T01171042 57017


Station Type Date Time Source
PASV Decoded METAR 2021/05/14 02:55 UTC NOAA

Sparrevohn Airways Facilities Sector, AK, United States (PASV) 61-06N 155-34W
May 13, 2021 - 10:55 PM EDT / 2021.05.14 0255 UTC
Wind: from the SE (140 degrees) at 6 MPH (5 KT):0
Visibility: 10 mile(s):0
Sky conditions: clear
Temperature: 53.1 F (11.7 C)
Dew Point: 24.4 F (-4.2 C)
Relative Humidity: 32%
Pressure (altimeter): 29.95 in. Hg (1014 hPa)
Pressure tendency: 0.05 inches (1.7 hPa) lower than three hours ago
ob: PASV 140255Z AUTO 14005KT 10SM CLR 12/M04 A2995 RMK AO2 SLP149 T01171042 57017
cycle: 3

Station Type Date Time Source
PASV TAF 2012/01/12 14:57 UTC NOAA

TAF
AMD PASV 1214/1320 33010G15KT 4800 -SN BLSN SCT003 SCT110 QNH2984INS
BECMG 1221/1222 VRB06KT 9999 NSW FEW010 SCT110 QNH3000INS LIMITED METWATCH TM25/1300Z TM37/1315Z
AMD 121453

Example: see airport list